KSHN/SHN METAR and TAF weather

Enter ICAO airport designator
Station Type Date Time Source
KSHN METAR 2021/03/08 03:34 UTC NOAA

KSHN 080334Z AUTO 00000KT 7SM -RA SCT025 BKN042 OVC055 03/02 A3016 RMK AO2 RAE07B31 P0002 T00280022


Station Type Date Time Source
KSHN Decoded METAR 2021/03/08 03:34 UTC NOAA

SHELTON SANDERSON FIELD, WA, United States (KSHN) 47-14N 123-08W 82M
Mar 07, 2021 - 10:34 PM EST / 2021.03.08 0334 UTC
Wind: Calm:0
Visibility: 7 mile(s):0
Sky conditions: overcast
Weather: light rain
Precipitation last hour: 0.02 inches
Temperature: 37.0 F (2.8 C)
Dew Point: 36.0 F (2.2 C)
Relative Humidity: 95%
Pressure (altimeter): 30.16 in. Hg (1021 hPa)
ob: KSHN 080334Z AUTO 00000KT 7SM -RA SCT025 BKN042 OVC055 03/02 A3016 RMK AO2 RAE07B31 P0002 T00280022
cycle: 3

Station Type Date Time Source
KSHN TAF UTC NOAA

Error!

Example: see airport list